Time;durP1;ratioP1;P1;durP2;ratioP2;P2;SDS_P1;SDS_P2;PMS_P1;PMS_P2;Temp;Humidity;BMP_temperature;BMP_pressure;BME280_temperature;BME280_humidity;BME280_pressure;Samples;Min_cycle;Max_cycle;Signal;HPM_P1;HPM_P2
2024/01/13 00:01:53;;;;;;;27.77;15.60;;;;;;;-0.08;100.00;100093.19;5052830;28;20519;-81
2024/01/13 00:04:18;;;;;;;26.75;15.65;;;;;;;-0.05;100.00;100100.84;5052893;28;20024;-81
2024/01/13 00:06:44;;;;;;;27.08;15.00;;;;;;;0.02;100.00;100106.84;5051196;28;20032;-82
2024/01/13 00:09:10;;;;;;;38.15;20.77;;;;;;;0.10;100.00;100117.13;5052442;28;20052;-82
2024/01/13 00:11:35;;;;;;;39.45;19.55;;;;;;;0.10;100.00;100114.56;5052834;28;20031;-82
2024/01/13 00:14:01;;;;;;;35.47;17.75;;;;;;;-0.14;100.00;100080.34;5052467;28;20460;-81
2024/01/13 00:16:26;;;;;;;37.83;18.45;;;;;;;-0.09;100.00;100081.19;5052950;28;20444;-81
2024/01/13 00:18:52;;;;;;;25.77;15.95;;;;;;;0.08;100.00;100106.88;5052154;28;20028;-81
2024/01/13 00:21:17;;;;;;;29.02;15.45;;;;;;;0.05;100.00;100096.63;5052693;28;20017;-81
2024/01/13 00:23:43;;;;;;;28.92;16.17;;;;;;;0.00;100.00;100088.09;5052539;28;20029;-82
2024/01/13 00:26:08;;;;;;;31.25;15.55;;;;;;;-0.18;100.00;100044.47;5052394;28;20399;-81
2024/01/13 00:28:33;;;;;;;26.85;15.57;;;;;;;-0.13;100.00;100048.75;5051321;28;20418;-81
2024/01/13 00:30:59;;;;;;;24.48;13.68;;;;;;;0.08;100.00;100083.81;5052289;28;20021;-81
2024/01/13 00:33:25;;;;;;;25.20;13.80;;;;;;;0.16;100.00;100086.41;5051274;28;20032;-81
2024/01/13 00:36:16;;;;;;;26.55;13.95;;;;;;;0.17;100.00;100088.09;5052514;28;20350;-82
2024/01/13 00:38:42;;;;;;;25.38;14.45;;;;;;;0.12;100.00;100077.84;5052737;28;20036;-81
2024/01/13 00:41:07;;;;;;;25.23;14.15;;;;;;;0.08;100.00;100068.44;5052172;28;20021;-81
2024/01/13 00:43:33;;;;;;;25.75;15.05;;;;;;;0.10;100.00;100074.44;5052316;28;20025;-81
2024/01/13 00:45:59;;;;;;;21.90;13.38;;;;;;;0.15;100.00;100066.78;5050798;28;20021;-81
2024/01/13 00:48:24;;;;;;;24.48;13.73;;;;;;;-0.02;100.00;100041.13;5052326;28;20109;-82
2024/01/13 00:50:50;;;;;;;20.98;12.18;;;;;;;0.03;100.00;100049.66;5051002;28;20435;-81
2024/01/13 00:53:15;;;;;;;24.75;13.35;;;;;;;-0.06;100.00;100032.56;5052083;28;20541;-81
2024/01/13 00:55:41;;;;;;;23.23;12.95;;;;;;;-0.38;100.00;99991.53;5052250;28;20029;-81
2024/01/13 00:58:06;;;;;;;24.08;13.48;;;;;;;0.03;100.00;100043.69;5050691;28;20028;-81
2024/01/13 01:00:32;;;;;;;21.08;12.77;;;;;;;0.15;100.00;100064.22;5052195;28;20028;-81
2024/01/13 01:02:57;;;;;;;24.55;13.82;;;;;;;0.05;100.00;100042.84;5051920;28;20017;-81
2024/01/13 01:05:22;;;;;;;24.90;13.57;;;;;;;0.08;100.00;100050.53;5052457;28;20035;-81
2024/01/13 01:07:48;;;;;;;19.13;11.95;;;;;;;0.16;100.00;100056.50;5052371;28;20497;-81
2024/01/13 01:10:13;;;;;;;21.80;13.45;;;;;;;0.14;100.00;100053.09;5054184;28;20036;-81
2024/01/13 01:12:40;;;;;;;22.42;12.95;;;;;;;0.07;100.00;100032.59;5056002;28;20045;-81
2024/01/13 01:15:06;;;;;;;20.77;13.48;;;;;;;0.20;100.00;100054.81;5056062;28;20033;-82
2024/01/13 01:17:31;;;;;;;22.23;13.30;;;;;;;0.07;100.00;100041.13;5055982;28;20031;-81
2024/01/13 01:19:57;;;;;;;19.40;11.73;;;;;;;0.01;100.00;100030.91;5055662;28;20016;-81
2024/01/13 01:22:22;;;;;;;20.35;11.95;;;;;;;0.01;100.00;100018.09;5055719;28;20472;-81
2024/01/13 01:24:48;;;;;;;20.58;12.13;;;;;;;0.20;100.00;100048.00;5055790;28;20027;-81
2024/01/13 01:27:13;;;;;;;22.92;13.00;;;;;;;0.03;100.00;100020.63;5055579;28;20123;-81
2024/01/13 01:29:39;;;;;;;22.63;12.77;;;;;;;0.19;100.00;100037.75;5055459;28;20452;-81
2024/01/13 01:32:04;;;;;;;21.63;12.55;;;;;;;0.11;100.00;100026.63;5055833;28;20021;-81
2024/01/13 01:34:30;;;;;;;20.05;12.48;;;;;;;0.09;100.00;100016.41;5054441;28;20437;-81
2024/01/13 01:36:55;;;;;;;19.83;12.70;;;;;;;0.32;100.00;100046.31;5055134;28;20496;-81
2024/01/13 01:39:20;;;;;;;20.45;12.25;;;;;;;0.22;100.00;100019.84;5054196;28;20027;-81
2024/01/13 01:41:46;;;;;;;20.48;12.15;;;;;;;0.32;100.00;100034.34;5055501;28;20024;-81
2024/01/13 01:44:11;;;;;;;19.70;11.70;;;;;;;0.12;100.00;99989.91;5055005;28;20111;-81
2024/01/13 01:46:39;;;;;;;24.45;13.45;;;;;;;0.13;100.00;99987.38;5055245;28;20025;-81
2024/01/13 01:49:05;;;;;;;21.65;12.80;;;;;;;0.27;100.00;100012.16;5055047;28;20024;-81
2024/01/13 01:51:31;;;;;;;20.70;12.77;;;;;;;0.30;100.00;100027.53;5055363;28;20029;-81
2024/01/13 01:53:57;;;;;;;23.65;13.77;;;;;;;0.30;100.00;100018.13;5055105;28;20025;-81
2024/01/13 01:56:25;;;;;;;23.05;12.98;;;;;;;0.13;100.00;99974.56;5055111;28;20413;-81
2024/01/13 01:58:52;;;;;;;26.15;15.25;;;;;;;0.06;100.00;99970.28;5055259;28;20048;-81
2024/01/13 02:01:18;;;;;;;24.25;14.38;;;;;;;0.24;100.00;100001.03;5054926;28;20044;-81
2024/01/13 02:03:46;;;;;;;27.20;14.63;;;;;;;0.21;100.00;99980.56;5055055;28;20112;-81
2024/01/13 02:06:11;;;;;;;23.27;13.40;;;;;;;0.15;100.00;99974.56;5054760;28;20028;-81
2024/01/13 02:08:37;;;;;;;26.15;14.48;;;;;;;0.19;100.00;99982.25;5053506;28;20483;-81
2024/01/13 02:11:02;;;;;;;30.73;15.10;;;;;;;0.09;100.00;99956.66;5054831;28;20132;-81
2024/01/13 02:13:28;;;;;;;28.27;14.85;;;;;;;0.32;100.00;99987.38;5054952;28;20017;-81
2024/01/13 02:15:54;;;;;;;27.85;15.50;;;;;;;0.32;100.00;99995.06;5054514;28;20025;-81
2024/01/13 02:18:19;;;;;;;29.65;16.13;;;;;;;0.29;100.00;99993.34;5053299;28;20151;-81
2024/01/13 02:20:45;;;;;;;32.38;14.55;;;;;;;0.21;100.00;99978.00;5053575;28;20028;-81
2024/01/13 02:23:10;;;;;;;24.70;14.82;;;;;;;0.14;100.00;99958.34;5054339;28;20021;-81
2024/01/13 02:25:35;;;;;;;22.63;13.93;;;;;;;0.13;100.00;99951.53;5054657;28;20360;-81
2024/01/13 02:28:01;;;;;;;25.45;13.70;;;;;;;0.29;100.00;99977.13;5054351;28;20021;-81
2024/01/13 02:30:26;;;;;;;25.85;14.88;;;;;;;0.03;100.00;99929.31;5054622;28;20104;-81
2024/01/13 02:32:52;;;;;;;29.05;14.55;;;;;;;0.16;100.00;99951.50;5054513;28;20399;-81
2024/01/13 02:35:17;;;;;;;22.17;13.90;;;;;;;0.30;100.00;99968.59;5054040;28;20423;-81
2024/01/13 02:37:43;;;;;;;19.02;12.57;;;;;;;0.36;100.00;99969.44;5054580;28;20020;-81
2024/01/13 02:40:09;;;;;;;20.02;12.32;;;;;;;0.35;100.00;99957.50;5054530;28;20061;-81
2024/01/13 02:42:38;;;;;;;23.75;13.63;;;;;;;0.38;100.00;99960.06;5054566;28;20360;-81
2024/01/13 02:45:04;;;;;;;22.70;12.45;;;;;;;0.38;100.00;99962.63;5054108;28;20025;-81
2024/01/13 02:47:47;;;;;;;20.25;12.60;;;;;;;0.23;100.00;99939.56;5054323;28;20108;-81
2024/01/13 02:50:13;;;;;;;21.13;11.75;;;;;;;0.22;100.00;99948.97;5037828;28;20035;-81
2024/01/13 02:52:40;;;;;;;21.65;13.15;;;;;;;0.40;100.00;99960.06;5054527;28;20077;-81
2024/01/13 02:55:06;;;;;;;22.77;11.80;;;;;;;0.19;100.00;99932.72;5053913;28;20029;-81
2024/01/13 02:57:32;;;;;;;24.63;13.25;;;;;;;0.34;100.00;99955.78;5054116;28;20032;-81
2024/01/13 02:59:57;;;;;;;23.70;13.65;;;;;;;0.36;100.00;99963.47;5054370;28;20025;-81
2024/01/13 03:02:22;;;;;;;25.52;13.43;;;;;;;0.15;100.00;99918.22;5053826;28;20017;-81
2024/01/13 03:04:48;;;;;;;23.52;13.57;;;;;;;0.43;100.00;99965.19;5054125;28;20021;-81
2024/01/13 03:07:13;;;;;;;21.60;13.30;;;;;;;0.26;100.00;99937.00;5053830;28;20013;-81
2024/01/13 03:09:39;;;;;;;23.65;14.63;;;;;;;0.38;100.00;99954.94;5053884;28;20448;-81
2024/01/13 03:12:05;;;;;;;22.98;12.73;;;;;;;0.39;100.00;99960.91;5053686;28;20112;-81
2024/01/13 03:14:31;;;;;;;22.95;12.00;;;;;;;0.36;100.00;99948.09;5053587;28;20021;-81
2024/01/13 03:16:56;;;;;;;19.42;12.02;;;;;;;0.36;100.00;99941.25;5052504;28;20123;-81
2024/01/13 03:19:21;;;;;;;18.75;12.10;;;;;;;0.22;100.00;99914.81;5053601;28;20452;-81
2024/01/13 03:21:47;;;;;;;24.50;13.52;;;;;;;0.37;100.00;99934.41;5054151;28;20025;-81
2024/01/13 03:24:12;;;;;;;22.20;12.70;;;;;;;0.42;100.00;99950.63;5053297;28;20025;-81
2024/01/13 03:26:37;;;;;;;25.00;13.70;;;;;;;0.31;100.00;99924.19;5052251;28;20029;-81
2024/01/13 03:29:03;;;;;;;26.98;12.95;;;;;;;0.39;100.00;99936.13;5053460;28;20105;-81
2024/01/13 03:31:28;;;;;;;23.13;12.90;;;;;;;0.34;100.00;99932.75;5053517;28;20025;-81
2024/01/13 03:33:54;;;;;;;30.60;14.57;;;;;;;0.41;100.00;99933.56;5053640;28;20029;-81
2024/01/13 03:36:19;;;;;;;28.08;14.25;;;;;;;0.38;100.00;99925.88;5053395;28;20031;-81
2024/01/13 03:38:45;;;;;;;20.52;12.20;;;;;;;0.23;100.00;99894.31;5053802;28;20031;-81
2024/01/13 03:41:14;;;;;;;23.00;13.63;;;;;;;0.41;100.00;99925.88;5053235;28;20148;-81
2024/01/13 03:43:40;;;;;;;22.00;14.18;;;;;;;0.38;100.00;99929.31;5053442;28;20108;-81
2024/01/13 03:46:06;;;;;;;21.75;13.45;;;;;;;0.44;100.00;99938.69;5054438;28;20086;-80
2024/01/13 03:48:31;;;;;;;24.58;14.38;;;;;;;0.47;100.00;99933.56;5054120;28;20036;-81
2024/01/13 03:50:57;;;;;;;24.83;13.60;;;;;;;0.29;100.00;99890.88;5054234;28;20035;-81
2024/01/13 03:53:22;;;;;;;25.10;13.80;;;;;;;0.39;100.00;99912.22;5053641;28;20412;-81
2024/01/13 03:55:47;;;;;;;22.45;13.00;;;;;;;0.24;100.00;99887.47;5053209;28;20021;-81
2024/01/13 03:58:13;;;;;;;27.60;13.93;;;;;;;0.40;100.00;99901.97;5052874;28;20104;-80
2024/01/13 04:00:38;;;;;;;23.65;13.10;;;;;;;0.28;100.00;99878.94;5052952;28;20013;-81
2024/01/13 04:03:04;;;;;;;20.27;12.73;;;;;;;0.39;100.00;99897.72;5052564;28;20021;-80
2024/01/13 04:05:29;;;;;;;22.33;13.35;;;;;;;0.18;100.00;99864.44;5052886;28;20013;-80
2024/01/13 04:07:55;;;;;;;23.02;13.15;;;;;;;0.35;100.00;99885.75;5052767;28;20435;-81
2024/01/13 04:10:20;;;;;;;22.75;13.57;;;;;;;0.30;100.00;99868.69;5052175;28;20052;-80
2024/01/13 04:12:45;;;;;;;20.73;13.25;;;;;;;0.51;100.00;99904.53;5052542;28;20098;-81
2024/01/13 04:15:11;;;;;;;23.48;13.57;;;;;;;0.20;100.00;99860.16;5052625;28;20021;-80
2024/01/13 04:17:37;;;;;;;20.95;13.35;;;;;;;0.34;100.00;99884.06;5052830;28;20017;-80
2024/01/13 04:20:03;;;;;;;21.58;13.05;;;;;;;0.49;100.00;99911.34;5052709;28;20024;-81
2024/01/13 04:22:29;;;;;;;20.95;12.90;;;;;;;0.40;100.00;99891.72;5052044;28;20091;-80
2024/01/13 04:24:54;;;;;;;22.85;13.50;;;;;;;0.34;100.00;99888.31;5051186;28;20029;-80
2024/01/13 04:27:20;;;;;;;23.48;13.38;;;;;;;0.21;100.00;99860.16;5052404;28;20020;-80
2024/01/13 04:29:45;;;;;;;22.25;13.07;;;;;;;0.47;100.00;99906.25;5051291;28;20067;-80
2024/01/13 04:32:10;;;;;;;24.77;13.45;;;;;;;0.53;100.00;99909.63;5052376;28;20120;-80
2024/01/13 04:34:36;;;;;;;20.02;12.20;;;;;;;0.52;100.00;99900.25;5052499;28;20321;-80
2024/01/13 04:37:02;;;;;;;21.83;12.93;;;;;;;0.48;100.00;99902.81;5052487;28;20071;-81
2024/01/13 04:39:27;;;;;;;21.08;12.48;;;;;;;0.52;100.00;99905.38;5052296;28;20027;-81
2024/01/13 04:41:52;;;;;;;21.27;12.68;;;;;;;0.35;100.00;99872.94;5052744;28;20017;-80
2024/01/13 04:44:18;;;;;;;21.42;12.43;;;;;;;0.54;100.00;99903.66;5052924;28;20078;-81
2024/01/13 04:46:43;;;;;;;19.98;12.85;;;;;;;0.59;100.00;99914.75;5056442;28;20028;-80
2024/01/13 04:49:09;;;;;;;31.83;17.33;;;;;;;0.33;100.00;99855.84;5062098;28;20107;-80
2024/01/13 04:51:34;;;;;;;22.60;12.10;;;;;;;0.37;100.00;99873.78;5076518;28;20103;-80
2024/01/13 04:53:59;;;;;;;17.00;11.85;;;;;;;0.39;100.00;99866.97;5076732;28;20028;-81
2024/01/13 04:56:25;;;;;;;19.77;12.80;;;;;;;0.54;100.00;99884.00;5076275;28;20013;-81
2024/01/13 04:58:50;;;;;;;20.45;12.65;;;;;;;0.50;100.00;99879.72;5075102;28;20137;-81
2024/01/13 05:01:16;;;;;;;27.10;12.80;;;;;;;0.50;100.00;99887.41;5074553;28;20020;-81
2024/01/13 05:03:41;;;;;;;21.65;13.07;;;;;;;0.53;100.00;99882.28;5076218;28;20032;-80
2024/01/13 05:06:08;;;;;;;21.83;12.38;;;;;;;0.54;100.00;99878.88;5075942;28;20103;-80
2024/01/13 05:08:33;;;;;;;21.38;13.02;;;;;;;0.56;100.00;99882.31;5075987;28;20047;-81
2024/01/13 05:10:59;;;;;;;20.35;12.05;;;;;;;0.65;100.00;99889.13;5076440;28;20017;-81
2024/01/13 05:13:24;;;;;;;21.73;13.18;;;;;;;0.38;100.00;99838.75;5075946;28;20085;-81
2024/01/13 05:15:49;;;;;;;22.50;12.10;;;;;;;0.64;100.00;99878.00;5076136;28;20056;-81
2024/01/13 05:18:15;;;;;;;20.35;12.40;;;;;;;0.46;100.00;99848.16;5075566;28;20036;-80
2024/01/13 05:20:40;;;;;;;22.52;13.07;;;;;;;0.64;100.00;99878.00;5074715;28;20025;-80
2024/01/13 05:23:07;;;;;;;22.38;12.25;;;;;;;0.60;100.00;99868.63;5075805;28;20020;-80
2024/01/13 05:25:33;;;;;;;17.35;11.98;;;;;;;0.56;100.00;99858.38;5075667;28;20088;-80
2024/01/13 05:27:58;;;;;;;21.30;13.20;;;;;;;0.42;100.00;99830.22;5074649;28;20111;-81
2024/01/13 05:30:26;;;;;;;21.73;12.20;;;;;;;0.63;100.00;99865.19;5075728;28;20033;-81
2024/01/13 05:32:51;;;;;;;22.42;12.95;;;;;;;0.28;100.00;99808.91;5075855;28;20038;-81
2024/01/13 05:35:17;;;;;;;18.95;12.35;;;;;;;0.43;100.00;99827.66;5075492;28;20072;-82
2024/01/13 05:37:42;;;;;;;18.10;13.15;;;;;;;0.61;100.00;99864.34;5075700;28;20111;-82
2024/01/13 05:40:08;;;;;;;20.27;12.40;;;;;;;0.50;100.00;99847.28;5075655;28;20135;-82
2024/01/13 05:42:34;;;;;;;22.33;12.63;;;;;;;0.42;100.00;99832.78;5075287;28;20107;-82
2024/01/13 05:44:59;;;;;;;21.95;12.60;;;;;;;0.40;100.00;99840.47;5075740;28;20040;-82
2024/01/13 05:47:25;;;;;;;19.40;11.68;;;;;;;0.63;100.00;99867.75;5075356;28;20162;-82
2024/01/13 05:49:51;;;;;;;18.92;12.88;;;;;;;0.50;100.00;99854.97;5075478;28;20101;-82
2024/01/13 05:52:17;;;;;;;19.95;12.48;;;;;;;0.40;100.00;99834.50;5075222;28;20030;-82
2024/01/13 05:54:42;;;;;;;16.73;11.20;;;;;;;0.36;100.00;99833.66;5075422;28;20444;-82
2024/01/13 05:57:07;;;;;;;15.75;11.75;;;;;;;0.58;100.00;99865.19;5074968;28;20022;-82
2024/01/13 05:59:33;;;;;;;18.58;12.02;;;;;;;0.50;100.00;99841.28;5075062;28;20039;-82
2024/01/13 06:01:59;;;;;;;16.42;11.00;;;;;;;0.60;100.00;99849.84;5075229;28;20662;-82
2024/01/13 06:04:25;;;;;;;14.77;10.38;;;;;;;0.44;100.00;99819.13;5074734;28;20486;-81
2024/01/13 06:06:52;;;;;;;17.73;11.80;;;;;;;0.39;100.00;99802.91;5075130;28;20032;-82
2024/01/13 06:09:17;;;;;;;18.30;11.45;;;;;;;0.47;100.00;99824.22;5074794;28;20078;-82
2024/01/13 06:11:42;;;;;;;17.00;10.98;;;;;;;0.53;100.00;99840.44;5075132;28;20103;-82
2024/01/13 06:14:08;;;;;;;18.70;11.15;;;;;;;0.57;100.00;99839.56;5075020;28;20030;-82
2024/01/13 06:16:33;;;;;;;20.13;11.65;;;;;;;0.43;100.00;99821.69;5075031;28;20031;-82
2024/01/13 06:19:01;;;;;;;16.00;10.70;;;;;;;0.54;100.00;99840.44;5073394;28;20074;-82
2024/01/13 06:21:27;;;;;;;13.88;9.85;;;;;;;0.45;100.00;99820.81;5074736;28;20410;-80
2024/01/13 06:23:52;;;;;;;18.25;11.02;;;;;;;0.61;100.00;99847.25;5074888;28;20025;-82
2024/01/13 06:26:17;;;;;;;15.52;9.43;;;;;;;0.39;100.00;99797.78;5074565;28;20012;-82
2024/01/13 06:28:43;;;;;;;15.57;10.73;;;;;;;0.58;100.00;99828.47;5074777;28;20427;-82
2024/01/13 06:31:08;;;;;;;15.30;10.40;;;;;;;0.43;100.00;99807.16;5074954;28;20028;-81
2024/01/13 06:33:34;;;;;;;14.48;9.43;;;;;;;0.47;100.00;99808.84;5074441;28;20028;-81
2024/01/13 06:35:59;;;;;;;16.40;9.40;;;;;;;0.52;100.00;99819.09;5074584;28;20449;-82
2024/01/13 06:38:25;;;;;;;14.63;9.27;;;;;;;0.64;100.00;99838.72;5074429;28;20111;-82
2024/01/13 06:40:50;;;;;;;15.55;9.82;;;;;;;0.29;100.00;99785.84;5074360;28;20021;-82
2024/01/13 06:43:15;;;;;;;14.93;10.00;;;;;;;0.52;100.00;99815.69;5074351;28;20020;-82
2024/01/13 06:45:41;;;;;;;16.63;10.60;;;;;;;0.63;100.00;99848.13;5074531;28;20445;-81
2024/01/13 06:48:06;;;;;;;15.23;9.85;;;;;;;0.41;100.00;99813.13;5074418;28;20017;-82
2024/01/13 06:50:32;;;;;;;16.05;10.82;;;;;;;0.43;100.00;99824.25;5074489;28;20013;-81
2024/01/13 06:52:57;;;;;;;19.63;11.13;;;;;;;0.42;100.00;99822.53;5074352;28;20021;-81
2024/01/13 06:55:24;;;;;;;17.45;11.38;;;;;;;0.58;100.00;99854.94;5074135;28;20028;-82
2024/01/13 06:57:50;;;;;;;16.00;10.93;;;;;;;0.41;100.00;99820.81;5074218;28;20111;-81
2024/01/13 07:00:16;;;;;;;16.40;10.13;;;;;;;0.38;100.00;99818.25;5073939;28;20111;-81
2024/01/13 07:02:42;;;;;;;18.10;10.63;;;;;;;0.57;100.00;99832.75;5074381;28;20020;-81
2024/01/13 07:05:08;;;;;;;14.43;9.65;;;;;;;0.37;100.00;99808.88;5074167;28;20485;-81
2024/01/13 07:07:34;;;;;;;16.48;10.57;;;;;;;0.66;100.00;99854.94;5073192;28;20129;-81
2024/01/13 07:09:59;;;;;;;14.82;10.00;;;;;;;0.65;100.00;99843.81;5074037;28;20482;-81
2024/01/13 07:12:25;;;;;;;15.82;10.50;;;;;;;0.66;100.00;99836.97;5073749;28;20485;-82
2024/01/13 07:14:50;;;;;;;15.23;10.05;;;;;;;0.60;100.00;99837.88;5073967;28;20163;-81
2024/01/13 07:17:16;;;;;;;14.20;10.48;;;;;;;0.60;100.00;99832.75;5073798;28;20432;-81
2024/01/13 07:19:42;;;;;;;14.50;10.02;;;;;;;0.62;100.00;99832.72;5073771;28;20028;-81
2024/01/13 07:22:08;;;;;;;14.85;9.55;;;;;;;0.30;100.00;99771.34;5073696;28;20027;-81
2024/01/13 07:24:34;;;;;;;13.73;9.57;;;;;;;0.66;100.00;99827.56;5073721;28;20031;-80
2024/01/13 07:26:59;;;;;;;16.02;10.13;;;;;;;0.48;100.00;99787.50;5073694;28;20103;-81
2024/01/13 07:29:25;;;;;;;14.88;10.35;;;;;;;0.65;100.00;99825.03;5073390;28;20444;-81
2024/01/13 07:31:50;;;;;;;13.48;9.68;;;;;;;0.62;100.00;99814.78;5072204;28;20485;-81
2024/01/13 07:34:15;;;;;;;14.45;9.65;;;;;;;0.59;100.00;99815.66;5073408;28;20040;-82
2024/01/13 07:36:41;;;;;;;14.38;10.15;;;;;;;0.67;100.00;99821.59;5073469;28;20025;-81
2024/01/13 07:39:09;;;;;;;19.52;11.35;;;;;;;0.65;100.00;99807.94;5073327;28;20021;-80
2024/01/13 07:41:35;;;;;;;16.17;10.88;;;;;;;0.52;100.00;99785.78;5073142;28;20016;-81
2024/01/13 07:44:01;;;;;;;14.10;10.02;;;;;;;0.64;100.00;99805.38;5073230;28;20029;-82
2024/01/13 07:46:27;;;;;;;13.25;9.90;;;;;;;0.65;100.00;99795.13;5072667;28;20028;-81
2024/01/13 07:48:52;;;;;;;13.88;9.98;;;;;;;0.69;100.00;99804.50;5067666;28;20074;-90
2024/01/13 07:51:19;;;;;;;14.70;11.48;;;;;;;0.69;100.00;99795.97;5052096;28;20124;-89
2024/01/13 07:53:45;;;;;;;14.20;10.35;;;;;;;0.71;100.00;99800.19;5052843;28;20017;-94
2024/01/13 07:56:11;;;;;;;14.70;10.30;;;;;;;0.37;100.00;99732.03;5070795;28;20035;-88
2024/01/13 07:58:36;;;;;;;16.83;11.48;;;;;;;0.78;100.00;99782.25;5070517;28;20111;-89
2024/01/13 08:01:03;;;;;;;14.43;10.38;;;;;;;0.76;100.00;99782.28;5070577;28;20089;-89
2024/01/13 08:03:29;;;;;;;13.30;9.68;;;;;;;0.66;100.00;99760.94;5053487;28;20063;-88
2024/01/13 08:05:54;;;;;;;13.32;9.52;;;;;;;0.62;100.00;99756.69;5070329;28;20068;-89
2024/01/13 08:08:20;;;;;;;12.32;9.77;;;;;;;0.71;100.00;99769.44;5069838;28;20031;-90
2024/01/13 08:10:46;;;;;;;13.60;9.88;;;;;;;0.79;100.00;99784.78;5070778;28;20032;-90
2024/01/13 08:13:14;;;;;;;15.10;10.13;;;;;;;0.66;100.00;99744.69;5070703;28;20070;-90
2024/01/13 08:15:40;;;;;;;14.07;10.10;;;;;;;0.89;100.00;99798.44;5053548;28;20040;-90
2024/01/13 08:18:06;;;;;;;15.32;10.02;;;;;;;0.89;100.00;99785.63;5054131;28;20066;-91
2024/01/13 08:20:32;;;;;;;11.35;8.90;;;;;;;0.93;100.00;99793.28;5069926;28;20036;-91
2024/01/13 08:22:57;;;;;;;12.95;9.45;;;;;;;0.86;100.00;99775.38;5071046;28;20063;-91
2024/01/13 08:25:24;;;;;;;13.07;8.55;;;;;;;0.87;100.00;99765.09;5070780;28;20434;-92
2024/01/13 08:27:50;;;;;;;12.55;8.68;;;;;;;0.74;100.00;99745.50;5056108;28;20484;-91
2024/01/13 08:30:16;;;;;;;11.77;8.65;;;;;;;0.97;100.00;99777.03;5052113;28;20031;-92
2024/01/13 08:32:41;;;;;;;12.00;9.00;;;;;;;0.93;100.00;99759.09;5052210;28;20102;-91
2024/01/13 08:35:10;;;;;;;10.63;8.05;;;;;;;1.02;100.00;99773.59;5052251;28;20017;-92
2024/01/13 08:37:36;;;;;;;11.00;8.52;;;;;;;0.72;100.00;99713.94;5051803;28;20556;-91
2024/01/13 08:40:04;;;;;;;10.50;8.40;;;;;;;1.08;100.00;99778.66;5070842;28;20036;-90
2024/01/13 08:42:30;;;;;;;11.60;8.18;;;;;;;1.08;100.00;99761.56;5070935;28;20039;-90
2024/01/13 08:44:56;;;;;;;13.25;9.73;;;;;;;1.12;100.00;99765.81;5071982;28;20032;-93
2024/01/13 08:47:23;;;;;;;13.07;8.88;;;;;;;1.13;100.00;99771.78;5050714;28;20036;-91
2024/01/13 08:49:48;;;;;;;14.52;9.90;;;;;;;1.11;100.00;99758.13;5034529;28;20071;-92
2024/01/13 08:52:15;;;;;;;13.30;9.43;;;;;;;1.07;100.00;99754.72;5034223;28;20054;-91
2024/01/13 08:54:40;;;;;;;13.77;9.27;;;;;;;1.12;100.00;99754.69;5034156;28;20499;-92
2024/01/13 08:57:06;;;;;;;12.05;9.30;;;;;;;1.10;100.00;99743.59;5051271;28;20071;-92
2024/01/13 08:59:33;;;;;;;12.70;9.52;;;;;;;1.09;100.00;99741.88;5034367;28;20057;-92
2024/01/13 09:02:00;;;;;;;12.80;9.40;;;;;;;1.13;100.00;99741.00;5034103;28;20523;-93
2024/01/13 09:04:27;;;;;;;13.25;10.32;;;;;;;1.15;100.00;99741.84;5033552;28;20052;-92
2024/01/13 09:06:56;;;;;;;14.82;9.85;;;;;;;0.91;100.00;99691.56;5035014;28;20506;-92
2024/01/13 09:09:22;;;;;;;13.05;9.35;;;;;;;1.04;100.00;99706.00;5034088;28;20472;-92
2024/01/13 09:11:51;;;;;;;12.90;9.93;;;;;;;1.16;100.00;99728.16;5018138;28;20436;-92
2024/01/13 09:14:17;;;;;;;13.05;9.75;;;;;;;1.23;100.00;99745.22;5031029;28;20037;-92
2024/01/13 09:16:44;;;;;;;16.80;10.30;;;;;;;1.11;100.00;99728.19;5014330;28;20079;-92
2024/01/13 09:19:09;;;;;;;13.48;9.73;;;;;;;1.24;100.00;99745.19;5045787;28;20043;-91
2024/01/13 09:21:35;;;;;;;11.60;9.18;;;;;;;1.26;100.00;99747.75;5051707;28;20013;-92
2024/01/13 09:24:01;;;;;;;14.60;9.80;;;;;;;1.28;100.00;99752.88;5052094;28;20078;-92
2024/01/13 09:26:27;;;;;;;13.45;10.25;;;;;;;1.31;100.00;99750.31;5051435;28;20032;-91
2024/01/13 09:28:52;;;;;;;17.88;10.95;;;;;;;1.30;100.00;99738.31;5052330;28;20021;-92
2024/01/13 09:31:19;;;;;;;16.35;10.27;;;;;;;1.29;100.00;99736.63;5054516;28;20403;-92
2024/01/13 09:33:45;;;;;;;15.65;9.77;;;;;;;1.31;100.00;99740.03;5055791;28;20454;-92
2024/01/13 09:36:10;;;;;;;13.15;9.15;;;;;;;1.29;100.00;99734.06;5056113;28;20029;-91
2024/01/13 09:39:01;;;;;;;15.05;10.55;;;;;;;1.29;100.00;99734.91;5055265;28;20116;-91
2024/01/13 09:41:29;;;;;;;10.82;8.55;;;;;;;1.28;100.00;99725.50;5054767;28;20044;-92
2024/01/13 09:44:00;;;;;;;17.10;10.00;;;;;;;1.26;100.00;99724.66;5055357;28;20021;-91
2024/01/13 09:46:26;;;;;;;;;;;;;;;1.27;100.00;99717.84;5055262;28;20407;-90
2024/01/13 09:48:54;;;;;;;13.77;10.35;;;;;;;1.29;100.00;99724.63;5055044;28;19908;-91
2024/01/13 09:51:22;;;;;;;11.57;9.45;;;;;;;1.29;100.00;99716.09;5054625;28;20021;-91
2024/01/13 09:53:55;;;;;;;14.38;9.68;;;;;;;1.31;100.00;99706.69;5054384;28;20021;-90
2024/01/13 09:56:29;;;;;;;12.68;9.30;;;;;;;1.33;100.00;99702.38;5054950;28;20025;-91
2024/01/13 09:58:55;;;;;;;12.32;9.20;;;;;;;1.30;100.00;99690.41;5054787;28;20025;-91
2024/01/13 10:01:21;;;;;;;15.05;9.30;;;;;;;0.85;100.00;99607.03;5055004;28;20047;-91
2024/01/13 10:03:46;;;;;;;13.00;9.13;;;;;;;1.38;100.00;99683.50;5054789;28;20372;-90
2024/01/13 10:06:12;;;;;;;12.40;8.70;;;;;;;1.31;100.00;99673.31;5055276;28;20021;-90
2024/01/13 10:08:38;;;;;;;14.50;9.82;;;;;;;1.38;100.00;99678.38;5055104;28;20029;-90
2024/01/13 10:11:03;;;;;;;12.88;8.38;;;;;;;1.35;100.00;99668.16;5055601;28;20112;-90
2024/01/13 10:13:33;;;;;;;15.63;9.30;;;;;;;1.12;100.00;99623.88;5056150;28;20056;-92
2024/01/13 10:15:58;;;;;;;14.00;9.18;;;;;;;1.41;100.00;99664.66;5057515;28;20407;-93
2024/01/13 10:18:24;;;;;;;16.77;10.27;;;;;;;1.44;100.00;99667.22;5063695;28;20021;-91
2024/01/13 10:20:51;;;;;;;12.93;9.18;;;;;;;1.44;100.00;99655.22;5062695;28;20063;-91
2024/01/13 10:23:17;;;;;;;12.43;8.40;;;;;;;1.32;100.00;99621.13;5063054;28;20084;-92
2024/01/13 10:25:44;;;;;;;11.98;8.95;;;;;;;1.48;100.00;99638.09;5059387;28;20055;-91
2024/01/13 10:28:14;;;;;;;10.13;7.47;;;;;;;1.33;100.00;99604.88;5054947;28;20029;-91
2024/01/13 10:30:40;;;;;;;12.98;8.50;;;;;;;1.51;100.00;99627.75;5054412;28;20420;-91
2024/01/13 10:33:08;;;;;;;11.15;8.80;;;;;;;1.35;100.00;99604.00;5054355;28;20111;-92
2024/01/13 10:35:34;;;;;;;11.40;8.75;;;;;;;1.37;100.00;99606.53;5054168;28;20017;-92
2024/01/13 10:38:11;;;;;;;11.23;8.60;;;;;;;1.51;100.00;99625.19;5052846;28;20377;-91
2024/01/13 10:40:37;;;;;;;10.80;8.10;;;;;;;1.46;100.00;99614.97;5035895;28;20458;-90
2024/01/13 10:43:05;;;;;;;10.20;7.57;;;;;;;1.24;100.00;99568.16;5050818;28;20119;-89
2024/01/13 10:46:21;;;;;;;13.27;9.35;;;;;;;1.50;100.00;99608.94;5034969;28;20032;-89
2024/01/13 10:48:50;;;;;;;13.10;8.48;;;;;;;1.48;100.00;99591.88;5051549;28;20033;-89
2024/01/13 10:51:21;;;;;;;13.00;9.13;;;;;;;1.57;100.00;99596.91;5051689;28;20025;-89
2024/01/13 10:53:49;;;;;;;13.32;8.93;;;;;;;1.57;100.00;99602.06;5051545;28;20033;-92
2024/01/13 10:56:16;;;;;;;8.93;6.70;;;;;;;1.59;100.00;99586.63;5036350;28;20064;-88
2024/01/13 10:58:44;;;;;;;10.15;6.85;;;;;;;1.54;100.00;99589.25;5050982;28;20033;-89
2024/01/13 11:01:11;;;;;;;9.63;6.82;;;;;;;1.55;100.00;99583.22;5051547;28;20104;-88
2024/01/13 11:03:41;;;;;;;11.43;7.40;;;;;;;1.44;100.00;99551.72;5050983;28;20602;-88
2024/01/13 11:06:06;;;;;;;10.77;8.52;;;;;;;1.52;100.00;99560.19;5051350;28;20016;-89
2024/01/13 11:08:32;;;;;;;8.82;7.30;;;;;;;1.44;100.00;99542.31;5050490;28;20404;-89
2024/01/13 11:11:01;;;;;;;10.77;6.88;;;;;;;1.53;100.00;99545.63;5051331;28;20021;-89
2024/01/13 11:13:37;;;;;;;10.43;6.70;;;;;;;1.65;100.00;99556.59;5051280;28;20044;-88
2024/01/13 11:16:10;;;;;;;7.78;5.85;;;;;;;1.74;100.00;99561.63;5051406;28;20080;-88